createdAt,value
2022-12-04T00:02:01.562Z,90.64
2022-12-04T00:04:30.665Z,89.57
2022-12-04T00:06:59.886Z,90.19
2022-12-04T00:09:29.218Z,89.39
2022-12-04T00:11:58.340Z,90.25
2022-12-04T00:14:27.497Z,89.83
2022-12-04T00:16:57.925Z,91.41
2022-12-04T00:19:27.005Z,90.60
2022-12-04T00:21:56.091Z,90.25
2022-12-04T00:24:25.183Z,91.16
2022-12-04T00:26:54.255Z,91.85
2022-12-04T00:29:23.392Z,91.71
2022-12-04T00:31:52.555Z,90.73
2022-12-04T00:34:23.130Z,91.99
2022-12-04T00:36:52.303Z,91.55
2022-12-04T00:39:21.372Z,92.63
2022-12-04T00:41:50.519Z,91.09
2022-12-04T00:44:19.599Z,91.78
2022-12-04T00:46:48.664Z,91.69
2022-12-04T00:49:17.714Z,92.83
2022-12-04T00:51:48.175Z,92.69
2022-12-04T00:54:17.252Z,92.69
2022-12-04T00:56:46.266Z,92.01
2022-12-04T00:59:15.362Z,92.73
2022-12-04T01:01:44.634Z,92.34
2022-12-04T01:04:13.777Z,93.26
2022-12-04T01:06:42.958Z,93.07
2022-12-04T01:09:13.398Z,94.09
2022-12-04T01:11:42.518Z,92.70
2022-12-04T01:14:11.641Z,93.17
2022-12-04T01:16:42.020Z,93.64
2022-12-04T01:19:13.436Z,93.03
2022-12-04T01:21:42.876Z,93.22
2022-12-04T01:24:13.267Z,94.26
2022-12-04T01:26:42.365Z,92.80
2022-12-04T01:29:11.506Z,93.89
2022-12-04T01:31:40.687Z,93.12
2022-12-04T01:34:09.820Z,93.09
2022-12-04T01:36:38.977Z,92.69
2022-12-04T01:39:08.121Z,93.45
2022-12-04T01:41:38.711Z,94.33
2022-12-04T01:44:13.784Z,93.86
2022-12-04T01:46:44.079Z,94.62
2022-12-04T01:49:16.624Z,94.18
2022-12-04T01:51:50.000Z,92.91
2022-12-04T01:54:28.189Z,94.78
2022-12-04T01:57:02.271Z,94.11
2022-12-04T01:59:36.323Z,93.22
2022-12-04T02:02:08.712Z,94.91
2022-12-04T02:04:39.666Z,93.69
2022-12-04T02:07:09.376Z,93.56
2022-12-04T02:09:40.371Z,94.88
2022-12-04T02:12:21.006Z,93.50
2022-12-04T02:15:02.073Z,94.02
2022-12-04T02:17:39.851Z,94.77
2022-12-04T02:20:23.263Z,93.58
2022-12-04T02:23:20.575Z,93.85
2022-12-04T02:26:00.572Z,94.38
2022-12-04T02:28:37.821Z,94.41
2022-12-04T02:31:10.553Z,95.13
2022-12-04T02:33:46.125Z,95.02
2022-12-04T02:36:20.460Z,95.19
2022-12-04T02:38:55.291Z,94.76
2022-12-04T02:41:29.840Z,94.05
2022-12-04T02:44:05.872Z,95.33
2022-12-04T02:46:40.702Z,95.83
2022-12-04T02:49:15.526Z,94.64
2022-12-04T02:51:46.864Z,96.01
2022-12-04T02:54:23.714Z,94.50
2022-12-04T02:56:55.511Z,94.94
2022-12-04T02:59:32.793Z,95.25
2022-12-04T03:02:09.262Z,95.38
2022-12-04T03:04:42.023Z,96.22
2022-12-04T03:07:15.905Z,96.18
2022-12-04T03:09:49.139Z,96.17
2022-12-04T03:12:22.861Z,94.86
2022-12-04T03:14:59.642Z,96.26
2022-12-04T03:17:32.364Z,95.66
2022-12-04T03:20:06.146Z,95.78
2022-12-04T03:22:40.804Z,94.74
2022-12-04T03:25:11.661Z,96.43
2022-12-04T03:27:47.394Z,95.11
2022-12-04T03:30:21.744Z,96.40
2022-12-04T03:32:54.827Z,95.47
2022-12-04T03:35:27.787Z,96.20
2022-12-04T03:38:02.985Z,96.68
2022-12-04T03:40:38.726Z,96.69
2022-12-04T03:43:14.593Z,96.28
2022-12-04T03:45:49.751Z,95.99
2022-12-04T03:48:23.636Z,96.30
2022-12-04T03:50:58.732Z,94.98
2022-12-04T03:53:36.254Z,96.29
2022-12-04T03:56:11.374Z,96.83
2022-12-04T03:58:45.337Z,95.18
2022-12-04T04:01:19.894Z,95.89
2022-12-04T04:03:52.956Z,95.47
2022-12-04T04:06:26.532Z,96.04
2022-12-04T04:08:59.237Z,95.40
2022-12-04T04:11:33.753Z,94.98
2022-12-04T04:14:23.631Z,96.51
2022-12-04T04:17:17.699Z,96.03
2022-12-04T04:20:10.657Z,96.22
2022-12-04T04:22:58.659Z,95.79
2022-12-04T04:25:29.463Z,96.49
2022-12-04T04:28:00.052Z,97.13
2022-12-04T04:30:33.419Z,96.46
2022-12-04T04:33:12.324Z,96.66
2022-12-04T04:35:50.129Z,96.74
2022-12-04T04:38:27.741Z,96.75
2022-12-04T04:41:02.837Z,95.85
2022-12-04T04:43:38.063Z,96.86
2022-12-04T04:46:11.414Z,96.75
2022-12-04T04:48:45.369Z,97.23
2022-12-04T04:51:15.067Z,96.01
2022-12-04T04:53:48.833Z,96.64
2022-12-04T04:56:18.616Z,96.79
2022-12-04T04:58:47.806Z,95.82
2022-12-04T05:01:19.175Z,95.76
2022-12-04T05:03:49.707Z,95.78
2022-12-04T05:06:18.759Z,97.49
2022-12-04T05:08:49.193Z,97.40
2022-12-04T05:11:18.814Z,96.80
2022-12-04T05:13:47.858Z,97.18
2022-12-04T05:16:17.583Z,96.00
2022-12-04T05:19:02.138Z,96.41
2022-12-04T05:21:31.325Z,96.17
2022-12-04T05:24:00.345Z,96.02
2022-12-04T05:26:29.565Z,96.92
2022-12-04T05:28:58.660Z,96.30
2022-12-04T05:31:27.805Z,96.76
2022-12-04T05:33:58.430Z,96.94
2022-12-04T05:36:27.529Z,96.95
2022-12-04T05:38:56.635Z,97.08
2022-12-04T05:41:26.088Z,98.03
2022-12-04T05:43:55.189Z,96.27
2022-12-04T05:46:24.410Z,96.52
2022-12-04T05:48:53.535Z,97.22
2022-12-04T05:51:24.004Z,97.33
2022-12-04T05:53:53.371Z,96.60
2022-12-04T05:56:23.196Z,96.74
2022-12-04T05:58:52.317Z,96.93
2022-12-04T06:01:23.381Z,97.79
2022-12-04T06:03:52.528Z,97.71
2022-12-04T06:06:25.440Z,97.69
2022-12-04T06:08:56.577Z,98.70
2022-12-04T06:11:27.973Z,97.05
2022-12-04T06:13:57.626Z,97.44
2022-12-04T06:16:29.104Z,98.72
2022-12-04T06:19:00.861Z,98.51
2022-12-04T06:21:34.245Z,97.79
2022-12-04T06:24:04.076Z,98.24
2022-12-04T06:26:33.501Z,98.75
2022-12-04T06:29:02.588Z,98.67
2022-12-04T06:31:33.533Z,96.86
2022-12-04T06:34:02.990Z,96.98
2022-12-04T06:36:33.884Z,98.80
2022-12-04T06:39:03.378Z,97.75
2022-12-04T06:41:32.993Z,98.27
2022-12-04T06:44:02.083Z,98.71
2022-12-04T06:46:33.397Z,97.55
2022-12-04T06:49:03.575Z,97.20
2022-12-04T06:51:36.547Z,98.10
2022-12-04T06:54:05.754Z,98.46
2022-12-04T06:56:35.195Z,98.06
2022-12-04T06:59:05.639Z,98.40
2022-12-04T07:01:36.338Z,97.17
2022-12-04T07:04:05.896Z,98.93
2022-12-04T07:06:37.611Z,98.43
2022-12-04T07:09:11.113Z,98.60
2022-12-04T07:11:41.049Z,98.03
2022-12-04T07:14:10.566Z,98.64
2022-12-04T07:16:42.216Z,98.06
2022-12-04T07:19:12.988Z,97.54
2022-12-04T07:21:44.178Z,98.76
2022-12-04T07:24:16.599Z,98.79
2022-12-04T07:26:46.102Z,98.90
2022-12-04T07:29:15.456Z,98.99
2022-12-04T07:31:45.284Z,99.33
2022-12-04T07:34:14.829Z,99.25
2022-12-04T07:36:45.200Z,98.87
2022-12-04T07:39:14.338Z,98.00
2022-12-04T07:41:43.383Z,97.77
2022-12-04T07:44:12.487Z,97.41
2022-12-04T07:46:41.560Z,98.65
2022-12-04T07:49:13.811Z,98.70
2022-12-04T07:51:44.248Z,97.41
2022-12-04T07:54:13.312Z,97.46
2022-12-04T07:56:42.530Z,98.91
2022-12-04T07:59:11.610Z,97.87
2022-12-04T08:01:40.788Z,96.93
2022-12-04T08:04:11.650Z,96.91
2022-12-04T08:06:41.610Z,97.07
2022-12-04T08:09:12.024Z,97.27
2022-12-04T08:11:41.620Z,97.07
2022-12-04T08:14:13.681Z,98.38
2022-12-04T08:16:48.247Z,97.74
2022-12-04T08:19:20.213Z,98.11
2022-12-04T08:21:49.656Z,97.22
2022-12-04T08:24:20.129Z,98.02
2022-12-04T08:26:49.327Z,97.03
2022-12-04T08:29:18.522Z,96.54
2022-12-04T08:31:47.747Z,96.45
2022-12-04T08:34:17.011Z,96.30
2022-12-04T08:36:46.143Z,96.49
2022-12-04T08:39:15.316Z,95.80
2022-12-04T08:41:45.785Z,96.65
2022-12-04T08:44:15.088Z,96.16
2022-12-04T08:46:44.535Z,95.65
2022-12-04T08:49:13.969Z,97.00
2022-12-04T08:51:43.012Z,96.24
2022-12-04T08:54:14.700Z,95.80
2022-12-04T08:56:45.443Z,96.78
2022-12-04T08:59:15.139Z,95.62
2022-12-04T09:01:45.459Z,94.61
2022-12-04T09:04:15.836Z,95.70
2022-12-04T09:06:46.159Z,95.54
2022-12-04T09:09:16.687Z,95.16
2022-12-04T09:11:49.057Z,95.52
2022-12-04T09:14:25.684Z,95.44
2022-12-04T09:16:55.605Z,94.15
2022-12-04T09:19:25.925Z,94.27
2022-12-04T09:21:56.545Z,94.69
2022-12-04T09:24:28.212Z,93.80
2022-12-04T09:26:58.822Z,94.10
2022-12-04T09:29:27.878Z,94.02
2022-12-04T09:31:56.973Z,94.80
2022-12-04T09:34:26.141Z,93.25
2022-12-04T09:36:55.199Z,93.65
2022-12-04T09:39:24.298Z,94.03
2022-12-04T09:42:28.881Z,92.65
2022-12-04T09:45:04.788Z,93.60
2022-12-04T09:47:38.082Z,93.72
2022-12-04T09:50:15.952Z,93.68
2022-12-04T09:52:52.684Z,92.40
2022-12-04T09:55:27.629Z,93.22
2022-12-04T09:58:02.451Z,93.47
2022-12-04T10:00:36.964Z,93.05
2022-12-04T10:03:08.999Z,92.14
2022-12-04T10:05:49.235Z,93.43
2022-12-04T10:08:22.496Z,93.48
2022-12-04T10:11:01.088Z,92.99
2022-12-04T10:13:51.873Z,91.91
2022-12-04T10:16:26.864Z,92.66
2022-12-04T10:19:05.325Z,93.10
2022-12-04T10:21:47.011Z,91.56
2022-12-04T10:24:25.364Z,93.08
2022-12-04T10:26:57.611Z,92.56
2022-12-04T10:29:31.867Z,91.86
2022-12-04T10:32:08.458Z,92.48
2022-12-04T10:34:42.586Z,92.19
2022-12-04T10:37:16.684Z,91.82
2022-12-04T10:39:53.271Z,91.92
2022-12-04T10:42:30.282Z,91.97
2022-12-04T10:45:00.911Z,91.85
2022-12-04T10:47:30.006Z,91.69
2022-12-04T10:50:03.256Z,92.28
2022-12-04T10:52:32.369Z,93.05
2022-12-04T10:55:02.319Z,92.83
2022-12-04T10:57:40.200Z,92.03
2022-12-04T11:00:27.404Z,93.06
2022-12-04T11:02:59.271Z,93.28
2022-12-04T11:05:32.646Z,92.32
2022-12-04T11:08:04.816Z,92.27
2022-12-04T11:10:37.589Z,91.75
2022-12-04T11:13:15.165Z,92.65
2022-12-04T11:15:48.464Z,92.22
2022-12-04T11:18:20.908Z,92.78
2022-12-04T11:20:57.320Z,92.18
2022-12-04T11:23:27.265Z,93.50
2022-12-04T11:26:05.163Z,91.90
2022-12-04T11:28:42.476Z,92.46
2022-12-04T11:31:20.096Z,93.21
2022-12-04T11:33:52.466Z,92.19
2022-12-04T11:36:24.773Z,93.16
2022-12-04T11:39:04.084Z,93.55
2022-12-04T11:41:34.311Z,93.07
2022-12-04T11:44:05.863Z,92.46
2022-12-04T11:46:37.467Z,93.02
2022-12-04T11:49:06.564Z,93.42
2022-12-04T11:51:49.822Z,92.61
2022-12-04T11:54:30.997Z,92.42
2022-12-04T11:57:10.932Z,92.87
2022-12-04T11:59:51.039Z,93.78
2022-12-04T12:02:40.692Z,92.93
2022-12-04T12:05:36.396Z,93.10
2022-12-04T12:08:14.008Z,92.95
2022-12-04T12:10:52.252Z,92.84
2022-12-04T12:13:31.535Z,92.29
2022-12-04T12:16:07.611Z,91.97
2022-12-04T12:18:57.265Z,92.75
2022-12-04T12:21:28.084Z,91.73
2022-12-04T12:24:15.644Z,92.98
2022-12-04T12:26:51.573Z,92.58
2022-12-04T12:29:35.455Z,91.80
2022-12-04T12:32:22.699Z,92.50
2022-12-04T12:34:53.627Z,92.51
2022-12-04T12:37:29.596Z,91.30
2022-12-04T12:40:03.937Z,92.01
2022-12-04T12:42:37.316Z,90.61
2022-12-04T12:45:22.320Z,91.12
2022-12-04T12:47:57.408Z,91.09
2022-12-04T12:50:36.269Z,90.99
2022-12-04T12:53:12.621Z,91.55
2022-12-04T12:55:45.460Z,90.91
2022-12-04T12:58:19.987Z,91.49
2022-12-04T13:00:57.255Z,91.16
2022-12-04T13:03:34.403Z,90.68
2022-12-04T13:06:08.081Z,90.79
2022-12-04T13:08:46.342Z,91.47
2022-12-04T13:11:21.033Z,91.75
2022-12-04T13:13:53.475Z,90.94
2022-12-04T13:16:26.791Z,91.12
2022-12-04T13:19:06.307Z,91.65
2022-12-04T13:21:41.357Z,90.98
2022-12-04T13:24:43.663Z,91.39
2022-12-04T13:27:24.053Z,91.79
2022-12-04T13:30:10.055Z,90.99
2022-12-04T13:33:13.384Z,91.20
2022-12-04T13:36:12.193Z,91.68
2022-12-04T13:38:58.103Z,91.31
2022-12-04T13:41:29.560Z,92.38
2022-12-04T13:44:04.157Z,91.75
2022-12-04T13:46:40.113Z,92.19
2022-12-04T13:49:21.734Z,92.29
2022-12-04T13:51:51.675Z,92.22
2022-12-04T13:54:39.776Z,92.34
2022-12-04T13:57:21.887Z,93.07
2022-12-04T14:00:02.173Z,92.43
2022-12-04T14:02:50.496Z,92.80
2022-12-04T14:05:29.093Z,93.37
2022-12-04T14:08:08.250Z,92.41
2022-12-04T14:10:40.824Z,93.20
2022-12-04T14:13:20.664Z,93.50
2022-12-04T14:15:50.227Z,93.30
2022-12-04T14:18:28.927Z,92.79
2022-12-04T14:21:04.696Z,93.62
2022-12-04T14:23:39.360Z,93.68
2022-12-04T14:26:37.344Z,93.44
2022-12-04T14:29:40.446Z,92.96
2022-12-04T14:32:14.864Z,93.30
2022-12-04T14:34:44.372Z,93.36
2022-12-04T14:37:24.149Z,93.53
2022-12-04T14:39:54.047Z,93.68
2022-12-04T14:42:27.648Z,94.11
2022-12-04T14:44:58.956Z,93.73
2022-12-04T14:47:41.987Z,94.06
2022-12-04T14:50:29.811Z,94.77
2022-12-04T14:53:07.328Z,94.78
2022-12-04T14:55:44.755Z,94.58
2022-12-04T14:58:31.276Z,95.10
2022-12-04T15:01:02.677Z,95.89
2022-12-04T15:03:36.674Z,96.05
2022-12-04T15:06:08.714Z,96.34
2022-12-04T15:08:38.002Z,96.69
2022-12-04T15:11:26.050Z,96.61
2022-12-04T15:14:04.967Z,96.84
2022-12-04T15:16:34.083Z,96.90
2022-12-04T15:19:03.195Z,97.29
2022-12-04T15:21:40.296Z,97.01
2022-12-04T15:24:10.424Z,97.21
2022-12-04T15:26:40.908Z,97.31
2022-12-04T15:29:18.141Z,97.28
2022-12-04T15:31:56.487Z,97.75
2022-12-04T15:34:33.413Z,97.83
2022-12-04T15:37:07.720Z,97.42
2022-12-04T15:39:38.104Z,97.85
2022-12-04T15:42:15.463Z,97.46
2022-12-04T15:44:54.866Z,97.95
2022-12-04T15:47:26.507Z,97.77
2022-12-04T15:49:55.917Z,98.04
2022-12-04T15:52:26.460Z,98.69
2022-12-04T15:54:58.758Z,97.85
2022-12-04T15:57:30.922Z,98.37
2022-12-04T16:00:05.079Z,98.00
2022-12-04T16:02:36.334Z,97.91
2022-12-04T16:05:14.040Z,98.19
2022-12-04T16:07:52.085Z,98.39
2022-12-04T16:10:24.384Z,98.51
2022-12-04T16:12:55.191Z,98.61
2022-12-04T16:15:27.875Z,98.53
2022-12-04T16:17:57.253Z,98.44
2022-12-04T16:20:26.416Z,98.79
2022-12-04T16:22:56.679Z,98.38
2022-12-04T16:25:26.068Z,98.70
2022-12-04T16:27:55.167Z,97.85
2022-12-04T16:30:25.817Z,98.26
2022-12-04T16:32:55.543Z,98.36
2022-12-04T16:35:25.021Z,98.72
2022-12-04T16:37:54.096Z,98.33
2022-12-04T16:40:23.216Z,98.85
2022-12-04T16:42:52.339Z,98.33
2022-12-04T16:45:30.702Z,98.84
2022-12-04T16:47:59.835Z,98.81
2022-12-04T16:50:29.571Z,98.64
2022-12-04T16:52:59.072Z,98.72
2022-12-04T16:55:32.613Z,98.64
2022-12-04T16:58:02.919Z,98.48
2022-12-04T17:00:33.953Z,98.93
2022-12-04T17:03:05.105Z,98.71
2022-12-04T17:05:35.837Z,99.07
2022-12-04T17:08:05.061Z,98.91
2022-12-04T17:10:34.076Z,99.16
2022-12-04T17:13:03.095Z,98.79
2022-12-04T17:15:33.560Z,99.68
2022-12-04T17:18:07.369Z,99.02
2022-12-04T17:20:42.768Z,99.30
2022-12-04T17:23:13.241Z,99.50
2022-12-04T17:25:42.885Z,99.65
2022-12-04T17:28:11.988Z,99.60
2022-12-04T17:30:46.180Z,100.00
2022-12-04T17:33:15.334Z,99.89
2022-12-04T17:35:45.012Z,99.84
2022-12-04T17:38:14.082Z,99.48
2022-12-04T17:40:43.189Z,99.80
2022-12-04T17:43:14.374Z,99.84
2022-12-04T17:45:47.988Z,99.71
2022-12-04T17:48:17.111Z,99.76
2022-12-04T17:50:46.207Z,99.64
2022-12-04T17:53:15.506Z,99.48
2022-12-04T17:55:44.607Z,99.72
2022-12-04T17:58:13.674Z,99.59
2022-12-04T18:00:42.797Z,99.56
2022-12-04T18:03:13.303Z,99.02
2022-12-04T18:05:42.411Z,99.52
2022-12-04T18:08:11.570Z,99.54
2022-12-04T18:10:40.974Z,99.23
2022-12-04T18:13:10.048Z,99.35
2022-12-04T18:15:39.165Z,99.75
2022-12-04T18:18:08.320Z,98.98
2022-12-04T18:20:38.976Z,99.13
2022-12-04T18:23:08.968Z,99.05
2022-12-04T18:25:38.402Z,99.61
2022-12-04T18:28:07.532Z,99.27
2022-12-04T18:30:36.958Z,99.33
2022-12-04T18:33:06.068Z,99.49
2022-12-04T18:35:35.267Z,99.05
2022-12-04T18:38:05.701Z,99.37
2022-12-04T18:40:36.827Z,99.17
2022-12-04T18:43:06.016Z,98.86
2022-12-04T18:45:35.341Z,99.16
2022-12-04T18:48:05.758Z,98.97
2022-12-04T18:50:34.874Z,98.88
2022-12-04T18:53:05.561Z,98.92
2022-12-04T18:55:37.310Z,98.76
2022-12-04T18:58:06.651Z,98.38
2022-12-04T19:00:36.354Z,98.18
2022-12-04T19:03:06.160Z,97.99
2022-12-04T19:05:36.629Z,97.95
2022-12-04T19:08:07.504Z,98.12
2022-12-04T19:10:36.652Z,98.40
2022-12-04T19:13:05.853Z,98.15
2022-12-04T19:15:35.018Z,98.42
2022-12-04T19:18:04.398Z,98.70
2022-12-04T19:20:33.534Z,98.51
2022-12-04T19:23:02.630Z,98.42
2022-12-04T19:25:33.357Z,98.14
2022-12-04T19:28:03.006Z,97.99
2022-12-04T19:30:34.589Z,98.21
2022-12-04T19:33:03.876Z,98.26
2022-12-04T19:35:32.942Z,97.96
2022-12-04T19:38:02.319Z,97.63
2022-12-04T19:40:32.818Z,97.55
2022-12-04T19:43:03.229Z,97.66
2022-12-04T19:45:32.457Z,98.00
2022-12-04T19:48:01.704Z,98.19
2022-12-04T19:50:32.223Z,98.05
2022-12-04T19:53:01.315Z,97.99
2022-12-04T19:55:31.793Z,98.18
2022-12-04T19:58:02.239Z,98.59
2022-12-04T20:00:31.379Z,98.69
2022-12-04T20:03:00.665Z,98.85
2022-12-04T20:05:29.770Z,98.75
2022-12-04T20:10:29.923Z,99.12
2022-12-04T20:13:00.540Z,99.07
2022-12-04T20:15:29.688Z,98.93
2022-12-04T20:17:59.200Z,99.51
2022-12-04T20:20:28.514Z,99.33
2022-12-04T20:22:57.883Z,99.37
2022-12-04T20:25:26.934Z,99.38
2022-12-04T20:27:56.012Z,99.61
2022-12-04T20:30:26.434Z,99.21
2022-12-04T20:32:55.972Z,99.73
2022-12-04T20:35:25.137Z,99.23
2022-12-04T20:37:54.416Z,99.12
2022-12-04T20:40:23.919Z,99.34
2022-12-04T20:42:53.071Z,99.12
2022-12-04T20:45:22.398Z,99.47
2022-12-04T20:47:53.100Z,99.57
2022-12-04T20:50:22.279Z,99.07
2022-12-04T20:52:51.481Z,99.23
2022-12-04T20:55:20.549Z,98.98
2022-12-04T20:57:49.845Z,98.95
2022-12-04T21:00:19.427Z,99.59
2022-12-04T21:02:48.601Z,99.37
2022-12-04T21:05:19.178Z,99.10
2022-12-04T21:07:48.336Z,99.21
2022-12-04T21:10:17.577Z,99.31
2022-12-04T21:13:04.052Z,99.27
2022-12-04T21:15:50.812Z,99.23
2022-12-04T21:18:20.001Z,99.54
2022-12-04T21:20:50.502Z,99.59
2022-12-04T21:23:19.796Z,99.51
2022-12-04T21:25:48.858Z,99.61
2022-12-04T21:28:17.951Z,99.55
2022-12-04T21:30:47.213Z,99.57
2022-12-04T21:33:16.908Z,99.34
2022-12-04T21:35:46.008Z,98.96
2022-12-04T21:38:16.421Z,99.24
2022-12-04T21:40:48.784Z,98.85
2022-12-04T21:43:17.774Z,98.91
2022-12-04T21:45:56.646Z,98.98
2022-12-04T21:48:25.817Z,99.37
2022-12-04T21:50:54.880Z,100.00
2022-12-04T21:53:25.385Z,99.85
2022-12-04T21:55:57.083Z,99.96
2022-12-04T21:58:29.037Z,100.00
2022-12-04T22:00:58.443Z,100.00
2022-12-04T22:03:27.587Z,100.00
2022-12-04T22:06:01.414Z,100.00
2022-12-04T22:08:32.311Z,100.00
2022-12-04T22:11:01.392Z,100.00
2022-12-04T22:13:30.593Z,100.00
2022-12-04T22:16:03.750Z,100.00
2022-12-04T22:18:33.512Z,100.00
2022-12-04T22:21:05.777Z,100.00
2022-12-04T22:23:36.689Z,100.00
2022-12-04T22:26:07.513Z,100.00
2022-12-04T22:28:36.873Z,100.00
2022-12-04T22:31:07.696Z,100.00
2022-12-04T22:33:38.141Z,100.00
2022-12-04T22:36:10.283Z,100.00
2022-12-04T22:39:05.957Z,100.00
2022-12-04T22:41:30.228Z,100.00
2022-12-04T22:43:59.253Z,100.00
2022-12-04T22:46:28.376Z,100.00
2022-12-04T22:48:58.953Z,100.00
2022-12-04T22:51:28.833Z,100.00
2022-12-04T22:54:00.147Z,100.00
2022-12-04T22:56:31.014Z,100.00
2022-12-04T22:59:01.145Z,100.00
2022-12-04T23:01:32.315Z,100.00
2022-12-04T23:04:02.651Z,100.00
2022-12-04T23:06:33.775Z,100.00
2022-12-04T23:09:08.330Z,100.00
2022-12-04T23:11:38.437Z,100.00
2022-12-04T23:14:10.185Z,100.00
2022-12-04T23:16:40.666Z,100.00
2022-12-04T23:19:12.898Z,100.00
2022-12-04T23:21:42.432Z,100.00
2022-12-04T23:24:13.773Z,100.00
2022-12-04T23:26:46.397Z,100.00
2022-12-04T23:29:45.051Z,100.00
2022-12-04T23:32:04.703Z,100.00
2022-12-04T23:34:34.299Z,100.00
2022-12-04T23:37:03.367Z,100.00
2022-12-04T23:39:33.833Z,100.00
2022-12-04T23:42:03.006Z,100.00
2022-12-04T23:44:32.194Z,100.00
2022-12-04T23:47:01.300Z,100.00
2022-12-04T23:49:30.556Z,100.00
2022-12-04T23:51:59.568Z,100.00
2022-12-04T23:54:30.167Z,100.00
2022-12-04T23:57:00.593Z,100.00
2022-12-04T23:59:29.674Z,100.00
